Terminal Aerodrome Forecast
Issued by NWS Sterling, VA

Current Version | Previous Version | Graphics & Text | Print | Product List | Glossary On
Versions: 1 2 3 4 5 6 7 8 9 10 11 12 13 14 15 16 17 18 19 20 21 22 23 24 25
000
FTUS41 KLWX 180539
TAFDCA
TAF
KDCA 180539Z 1806/1912 06007KT 3SM SHRA BR OVC005
     FM181700 07011G18KT 2SM -SHRA BR OVC005
     FM190000 08009KT 2SM -SHRA BR OVC010=

USA.gov is the U.S. government's official web portal to all federal, state and local government web resources and services.